Latest Weather Observations for Mount Boyce

IDN60901

Issued at 10:21 am EDT Monday 2 March 2015 (issued every 10 minutes, with the page automatically refreshed every 10 minutes)

About weather observations | Map of Sydney area stations | Latest observations for Sydney area | Other Formats
Station Details ID: 063292 Name: MOUNT BOYCE AWS Lat: -33.62 Lon: 150.27 Height: 1080.0 m
Data from the previous 72 hours. | See also: Recent months at Mount Boyce
Date/Time
EDT
Tmp

°C
App
Tmp
°C
Dew
Point
°C
Rel
Hum
%
Delta-T

°C
Wind Press
QNH
hPa
Press
MSL
hPa
Rain
since
9 am
mm
Dir
 
Spd
km/h
Gust
km/h
Spd
kts
Gust
kts
02/10:00am 13.0 11.9 10.5 85 1.4 ENE 7 17 4 9 - - 0.0
02/09:30am 12.4 11.3 10.5 88 1.0 E 7 15 4 8 - - 0.0
02/09:00am 11.9 11.2 10.0 88 1.0 E 4 9 2 5 - - 9.0
02/08:30am 11.7 10.4 10.1 90 0.9 E 7 13 4 7 - - 9.0
02/08:28am 11.6 10.4 10.2 91 0.8 E 7 20 4 11 - - 9.0
02/08:01am 11.2 9.9 9.9 92 0.7 E 7 13 4 7 - - 9.0
02/08:00am 11.1 10.0 9.9 92 0.6 E 6 13 3 7 - - 9.0
02/07:30am 10.9 9.6 10.0 94 0.5 E 7 17 4 9 - - 9.0
02/07:00am 10.7 9.6 9.8 94 0.5 E 6 13 3 7 - - 9.0
02/06:30am 10.6 9.5 9.8 95 0.4 E 6 11 3 6 - - 9.0
02/06:24am 10.6 9.3 9.8 95 0.4 E 7 20 4 11 - - 9.0
02/05:46am 10.6 9.2 9.7 94 0.5 E 7 17 4 9 - - 9.0
02/05:30am 10.5 9.3 9.6 94 0.5 E 6 11 3 6 - - 9.0
02/05:00am 10.4 9.0 9.5 94 0.5 E 7 13 4 7 - - 9.0
02/04:30am 10.3 8.5 9.4 94 0.5 E 9 13 5 7 - - 9.0
02/04:00am 10.2 8.4 9.3 94 0.5 E 9 19 5 10 - - 9.0
02/03:30am 10.2 7.6 9.3 94 0.5 E 13 22 7 12 - - 9.0
02/03:00am 10.3 8.1 9.2 93 0.6 ESE 11 20 6 11 - - 9.0
02/02:30am 10.4 7.4 9.3 93 0.6 E 15 32 8 17 - - 9.0
02/02:00am 10.6 8.0 9.5 93 0.6 E 13 28 7 15 - - 9.0
02/01:35am 10.6 7.7 9.8 95 0.4 E 15 28 8 15 - - 9.0
02/01:30am 10.7 8.3 10.1 96 0.3 E 13 30 7 16 - - 9.0
02/01:19am 10.9 8.9 10.3 96 0.3 E 11 22 6 12 - - 9.0
02/01:00am 10.9 8.9 10.3 96 0.3 E 11 30 6 16 - - 9.0
02/12:53am 11.0 8.7 10.4 96 0.3 ESE 13 32 7 17 - - 9.0
02/12:33am 11.0 8.7 10.4 96 0.3 E 13 30 7 16 - - 9.0
02/12:30am 11.0 8.3 10.4 96 0.3 E 15 30 8 16 - - 9.0
 
Date/Time
EDT
Tmp

°C
App
Tmp
°C
Dew
Point
°C
Rel
Hum
%
Delta-T

°C
Wind Press
QNH
hPa
Press
MSL
hPa
Rain
since
9 am
mm
Dir
 
Spd
km/h
Gust
km/h
Spd
kts
Gust
kts
01/11:38pm 11.1 7.6 10.3 95 0.4 E 19 32 10 17 - - 9.0
01/11:32pm 11.1 7.4 10.3 95 0.4 E 20 32 11 17 - - 9.0
01/11:30pm 11.1 7.4 10.3 95 0.4 E 20 33 11 18 - - 9.0
01/11:00pm 11.4 8.4 10.8 96 0.3 E 17 32 9 17 - - 9.0
01/10:46pm 11.4 8.1 10.8 96 0.3 E 19 33 10 18 - - 9.0
01/10:30pm 11.6 8.4 11.1 97 0.3 ESE 19 32 10 17 - - 9.0
01/10:00pm 11.9 8.7 11.3 96 0.3 E 19 33 10 18 - - 9.0
01/08:30pm 15.2 13.5 14.7 97 0.3 E 17 28 9 15 - - 8.6
01/08:00pm 16.0 15.3 15.4 96 0.4 E 13 24 7 13 - - 8.4
01/07:30pm 16.6 16.7 15.5 93 0.7 E 9 19 5 10 - - 8.4
01/07:25pm 16.9 17.0 15.6 92 0.8 E 9 19 5 10 - - 8.4
01/07:09pm 17.4 18.0 15.7 90 1.0 E 7 17 4 9 - - 8.4
01/07:00pm 17.5 17.8 15.1 86 1.5 E 7 13 4 7 - - 8.4
01/05:30pm 18.7 18.1 15.6 82 1.9 N 13 20 7 11 - - 8.4
01/05:00pm 16.8 14.6 14.3 85 1.5 NW 19 30 10 16 - - 8.4
01/04:59pm 16.5 14.3 14.5 88 1.2 NW 19 30 10 16 - - 8.4
01/04:31pm 15.2 8.0 13.2 88 1.2 SW 43 95 23 51 - - 3.6
01/04:30pm 15.4 8.6 13.1 86 1.3 WSW 41 95 22 51 - - 2.8
01/04:29pm 15.6 9.1 12.9 84 1.6 WSW 39 95 21 51 - - 2.0
01/04:26pm 16.6 11.6 12.2 75 2.5 WSW 30 95 16 51 - - 0.2
01/04:25pm 17.7 13.4 11.9 69 3.4 WSW 26 95 14 51 - - 0.0
01/04:24pm 19.9 16.8 12.2 61 4.5 WSW 20 95 11 51 - - 0.0
01/04:23pm 21.4 19.6 13.3 60 4.9 WSW 15 76 8 41 - - 0.0
01/04:00pm 22.9 21.9 12.2 51 6.4 WNW 9 15 5 8 - - 0.0
01/03:30pm 23.2 20.5 11.6 48 6.8 WNW 17 37 9 20 - - 0.0
01/03:00pm 25.4 22.0 12.6 45 7.8 W 22 44 12 24 - - 0.0
01/02:42pm 26.2 21.7 12.6 43 8.3 W 28 52 15 28 - - 0.0
01/02:30pm 26.8 23.0 12.4 40 8.7 W 24 41 13 22 - - 0.0
01/02:00pm 26.4 22.5 13.2 44 8.1 W 26 39 14 21 - - 0.0
01/01:30pm 27.1 24.2 14.1 44 8.1 W 22 37 12 20 - - 0.0
01/01:00pm 26.4 23.7 14.5 48 7.5 W 22 46 12 25 - - 0.0
01/12:30pm 25.6 22.7 15.0 52 6.7 W 24 44 13 24 - - 0.0
01/12:02pm 25.1 21.3 14.8 52 6.4 W 28 48 15 26 - - 0.0
01/12:00pm 25.8 22.6 15.2 52 6.7 W 26 41 14 22 - - 0.0
01/11:53am 25.4 21.6 14.8 52 6.6 W 28 48 15 26 - - 0.0
01/11:30am 25.1 23.1 15.4 55 6.1 W 20 39 11 21 - - 0.0
01/11:00am 24.0 24.5 15.5 59 5.4 - 7 24 4 13 - - 0.0
01/10:30am 23.2 21.5 15.8 63 4.7 WNW 19 30 10 16 - - 0.0
01/10:00am 22.0 20.4 14.9 64 4.4 WNW 17 30 9 16 - - 0.0
01/09:30am 21.1 19.2 14.3 65 4.2 WNW 17 26 9 14 - - 0.0
01/09:00am 20.2 17.7 13.6 66 4.0 WNW 19 33 10 18 - - 0.2
01/08:30am 19.9 17.6 13.1 65 4.1 W 17 30 9 16 - - 0.2
01/08:00am 19.2 17.6 12.7 66 3.8 W 13 22 7 12 - - 0.2
01/07:30am 18.7 16.2 12.2 66 3.8 WNW 17 24 9 13 - - 0.2
01/07:00am 18.5 16.6 11.8 65 3.9 W 13 28 7 15 - - 0.2
01/06:30am 18.9 16.6 11.7 63 4.2 WNW 15 28 8 15 - - 0.2
01/06:00am 18.9 16.9 11.5 62 4.3 WNW 13 24 7 13 - - 0.2
01/05:30am 18.6 17.0 11.4 63 4.1 WNW 11 17 6 9 - - 0.2
01/05:00am 18.5 17.2 11.1 62 4.2 WNW 9 17 5 9 - - 0.2
01/04:30am 18.6 17.7 11.2 62 4.2 W 7 13 4 7 - - 0.2
01/04:00am 18.9 17.9 11.0 60 4.5 WNW 7 13 4 7 - - 0.2
01/03:30am 19.1 17.3 10.9 59 4.7 NW 11 17 6 9 - - 0.2
01/03:00am 19.0 17.7 10.0 56 5.1 NW 7 11 4 6 - - 0.2
01/02:30am 19.4 17.7 9.9 54 5.3 NW 9 15 5 8 - - 0.2
01/02:00am 19.8 18.0 10.8 56 5.2 N 11 20 6 11 - - 0.2
01/01:30am 18.7 17.8 11.5 63 4.2 NE 7 13 4 7 - - 0.2
01/01:00am 18.6 17.5 11.9 65 3.9 NE 9 13 5 7 - - 0.2
01/12:30am 18.8 17.8 12.3 66 3.8 NE 9 15 5 8 - - 0.2
01/12:00am 18.3 17.3 12.3 68 3.5 NE 9 13 5 7 - - 0.2
 
Date/Time
EDT
Tmp

°C
App
Tmp
°C
Dew
Point
°C
Rel
Hum
%
Delta-T

°C
Wind Press
QNH
hPa
Press
MSL
hPa
Rain
since
9 am
mm
Dir
 
Spd
km/h
Gust
km/h
Spd
kts
Gust
kts
28/11:30pm 18.5 17.4 13.1 71 3.2 NE 11 17 6 9 - - 0.2
28/11:00pm 18.7 17.0 13.6 72 3.1 NE 15 20 8 11 - - 0.2
28/10:30pm 18.2 16.9 13.7 75 2.7 NE 13 19 7 10 - - 0.2
28/10:00pm 18.5 17.3 14.0 75 2.7 NE 13 19 7 10 - - 0.2
28/09:30pm 18.2 17.5 14.3 78 2.4 ENE 11 20 6 11 - - 0.2
28/09:00pm 18.0 17.7 14.5 80 2.1 ENE 9 17 5 9 - - 0.2
28/08:30pm 18.3 17.9 14.2 77 2.5 ENE 9 13 5 7 - - 0.2
28/08:00pm 19.1 18.7 14.1 73 3.0 ENE 9 17 5 9 - - 0.2
28/07:30pm 20.7 20.9 14.6 68 3.7 ENE 7 13 4 7 - - 0.2
28/07:00pm 22.0 21.9 14.9 64 4.4 ENE 9 13 5 7 - - 0.2
28/06:30pm 21.9 22.1 15.7 68 3.9 ENE 9 13 5 7 - - 0.2
28/06:00pm 22.8 22.8 15.1 62 4.8 ENE 9 15 5 8 - - 0.2
28/05:30pm 24.3 24.3 15.2 57 5.7 ENE 9 17 5 9 - - 0.2
28/05:00pm 24.1 23.6 13.9 53 6.3 E 9 15 5 8 - - 0.2
28/04:30pm 24.3 24.6 12.3 47 7.2 E 2 11 1 6 - - 0.2
28/04:00pm 26.1 23.8 10.3 37 9.2 WNW 13 20 7 11 - - 0.2
28/03:30pm 25.6 23.7 10.6 39 8.8 W 11 20 6 11 - - 0.2
28/03:00pm 26.3 25.7 13.4 45 7.9 WNW 9 17 5 9 - - 0.2
28/02:30pm 25.0 24.1 11.2 42 8.2 NW 7 20 4 11 - - 0.2
28/02:00pm 24.4 23.9 12.0 46 7.4 N 6 15 3 8 - - 0.2
28/01:30pm 24.2 23.1 10.5 42 8.0 WSW 7 11 4 6 - - 0.2
28/01:00pm 23.3 22.2 12.0 49 6.7 WNW 9 13 5 7 - - 0.2
28/12:30pm 22.8 21.0 10.9 47 6.9 WNW 11 19 6 10 - - 0.2
28/12:00pm 22.6 22.2 14.2 59 5.2 W 9 15 5 8 - - 0.2
28/11:30am 22.0 21.6 14.1 61 4.8 WNW 9 15 5 8 - - 0.2
28/11:00am 21.5 21.0 12.1 55 5.6 NW 6 11 3 6 - - 0.0
28/10:30am 21.0 20.2 12.9 60 4.8 NNE 9 15 5 8 - - 0.0
28/10:00am 18.5 18.4 13.8 74 2.8 NE 7 11 4 6 - - 0.0
28/09:30am 18.2 17.7 13.9 76 2.6 NE 9 13 5 7 - - 0.0
28/09:00am 17.5 15.7 12.0 70 3.2 NNE 13 17 7 9 - - 0.0
28/08:30am 17.4 15.5 11.9 70 3.2 NNE 13 17 7 9 - - 0.0
28/08:00am 16.9 15.4 13.0 78 2.3 N 13 19 7 10 - - 0.0
28/07:30am 16.3 15.0 13.6 84 1.6 N 13 17 7 9 - - 0.0
28/07:00am 15.2 14.6 13.4 89 1.1 NNW 9 13 5 7 - - 0.0
28/06:30am 15.6 14.8 14.0 90 1.0 NNE 11 17 6 9 - - 0.0
28/06:00am 15.4 15.0 14.1 92 0.8 N 9 13 5 7 - - 0.0
28/05:30am 15.2 15.4 14.6 96 0.4 N 7 13 4 7 - - 0.0
28/05:00am 14.9 14.9 14.3 96 0.4 NE 7 13 4 7 - - 0.0
28/04:30am 14.5 15.8 14.0 97 0.3 CALM 0 0 0 0 - - 0.0
28/04:00am 14.6 15.9 14.0 96 0.4 CALM 0 0 0 0 - - 0.0
28/03:30am 14.4 14.5 13.8 96 0.4 WNW 6 9 3 5 - - 0.0
28/03:00am 14.6 14.5 13.8 95 0.5 NW 7 11 4 6 - - 0.0
28/02:30am 14.8 15.4 14.2 96 0.4 N 4 9 2 5 - - 0.0
28/02:00am 15.1 14.8 14.3 95 0.5 NE 9 15 5 8 - - 0.0
28/01:53am 15.1 14.8 14.3 95 0.5 NE 9 17 5 9 - - 0.0
28/01:30am 15.5 15.3 14.7 95 0.5 NE 9 17 5 9 - - 0.0
28/01:00am 15.6 15.4 14.8 95 0.5 ENE 9 13 5 7 - - 0.0
28/12:31am 15.9 15.9 15.1 95 0.5 NE 9 17 5 9 - - 0.0
28/12:30am 15.9 15.9 15.1 95 0.5 NE 9 17 5 9 - - 0.0
28/12:00am 16.1 16.6 15.5 96 0.4 ENE 7 13 4 7 - - 0.0
 
Date/Time
EDT
Tmp

°C
App
Tmp
°C
Dew
Point
°C
Rel
Hum
%
Delta-T

°C
Wind Press
QNH
hPa
Press
MSL
hPa
Rain
since
9 am
mm
Dir
 
Spd
km/h
Gust
km/h
Spd
kts
Gust
kts
27/11:45pm 16.1 16.2 15.5 96 0.4 ENE 9 13 5 7 - - 0.0
27/11:30pm 16.1 16.5 15.3 95 0.5 ENE 7 13 4 7 - - 0.0
27/11:24pm 16.1 16.5 15.3 95 0.5 ENE 7 13 4 7 - - 0.0
27/11:00pm 16.1 16.1 15.3 95 0.5 ENE 9 13 5 7 - - 0.0
27/10:30pm 16.3 16.5 15.7 96 0.4 ENE 9 13 5 7 - - 0.0
27/10:00pm 16.3 16.9 15.7 96 0.4 ENE 7 13 4 7 - - 0.0
27/09:30pm 16.5 16.8 15.9 96 0.4 ENE 9 15 5 8 - - 0.0
27/09:00pm 16.5 16.3 15.7 95 0.5 ENE 11 15 6 8 - - 0.0
27/08:41pm 16.3 16.3 15.3 94 0.6 ENE 9 15 5 8 - - 0.0
27/08:30pm 16.3 15.9 15.2 93 0.7 ENE 11 17 6 9 - - 0.0
27/08:00pm 16.6 16.2 15.1 91 0.9 ENE 11 17 6 9 - - 0.0
27/07:30pm 17.3 16.8 14.9 86 1.5 ENE 11 19 6 10 - - 0.0
27/07:00pm 18.9 18.6 15.4 80 2.2 ENE 11 20 6 11 - - 0.0
27/06:30pm 20.0 19.6 15.2 74 3.0 ENE 11 20 6 11 - - 0.0
27/06:00pm 20.4 19.8 14.7 70 3.5 ENE 11 17 6 9 - - 0.0
27/05:30pm 22.0 21.7 15.4 66 4.1 ENE 11 20 6 11 - - 0.0
27/05:00pm 22.5 22.4 14.9 62 4.7 ENE 9 17 5 9 - - 0.0
27/04:30pm 22.5 22.4 14.9 62 4.7 ENE 9 17 5 9 - - 0.0
27/04:00pm 22.8 23.3 14.9 61 4.9 E 6 13 3 7 - - 0.0
27/03:30pm 22.5 22.4 14.9 62 4.7 ENE 9 15 5 8 - - 0.0
27/03:00pm 21.8 21.5 14.4 63 4.5 ENE 9 15 5 8 - - 0.0
27/02:30pm 20.2 20.2 13.6 66 4.0 ESE 6 9 3 5 - - 0.0
27/02:00pm 20.5 20.4 13.9 66 4.0 NE 7 11 4 6 - - 0.0
27/01:30pm 21.0 20.6 14.2 65 4.2 ENE 9 15 5 8 - - 0.0
27/01:00pm 20.1 19.7 14.2 69 3.6 ENE 9 15 5 8 - - 0.0
27/12:30pm 19.4 19.4 14.2 72 3.2 E 7 17 4 9 - - 0.0
27/12:00pm 18.7 18.8 14.0 74 2.8 ENE 6 13 3 7 - - 0.0
27/11:41am 18.7 18.9 14.8 78 2.4 ENE 7 13 4 7 - - 0.0
27/11:30am 17.5 18.0 15.1 86 1.5 ENE 6 11 3 6 - - 0.0
27/11:00am 17.0 17.5 15.0 88 1.2 E 6 15 3 8 - - 0.0
27/10:30am 17.0 17.3 15.0 88 1.2 ENE 7 15 4 8 - - 0.0

Latest Capital City Observations: Canberra | Sydney | Melbourne | Brisbane | Adelaide | Perth | Hobart | Darwin

Other Formats:

Comma delimited format used in spreadsheet applications
http://www.bom.gov.au/fwo/IDN60901/IDN60901.94743.axf

JavaScript Object Notation format (JSON) in row-major order
http://www.bom.gov.au/fwo/IDN60901/IDN60901.94743.json